sensor_id;sensor_type;location;lat;lon;timestamp;P1;durP1;ratioP1;P2;durP2;ratioP2
10659;SDS011;5378;53.206;13.316;2024-03-23T00:54:35;23.57;;;2.83;;
10659;SDS011;5378;53.206;13.316;2024-03-23T00:57:20;10.70;;;3.50;;
10659;SDS011;5378;53.206;13.316;2024-03-23T01:00:04;13.03;;;3.80;;
10659;SDS011;5378;53.206;13.316;2024-03-23T01:02:50;20.83;;;4.00;;
10659;SDS011;5378;53.206;13.316;2024-03-23T01:05:35;16.40;;;3.13;;
10659;SDS011;5378;53.206;13.316;2024-03-23T01:08:19;17.60;;;2.97;;
10659;SDS011;5378;53.206;13.316;2024-03-23T01:11:03;14.70;;;4.87;;
10659;SDS011;5378;53.206;13.316;2024-03-23T01:13:48;7.47;;;2.83;;
10659;SDS011;5378;53.206;13.316;2024-03-23T01:16:32;15.50;;;4.40;;
10659;SDS011;5378;53.206;13.316;2024-03-23T01:19:17;10.53;;;2.73;;
10659;SDS011;5378;53.206;13.316;2024-03-23T01:22:01;14.07;;;3.40;;
10659;SDS011;5378;53.206;13.316;2024-03-23T01:24:46;14.27;;;3.83;;
10659;SDS011;5378;53.206;13.316;2024-03-23T01:27:30;22.30;;;4.33;;
10659;SDS011;5378;53.206;13.316;2024-03-23T01:30:16;14.13;;;4.20;;
10659;SDS011;5378;53.206;13.316;2024-03-23T01:33:01;19.40;;;3.93;;
10659;SDS011;5378;53.206;13.316;2024-03-23T01:35:46;15.00;;;4.77;;
10659;SDS011;5378;53.206;13.316;2024-03-23T01:38:31;16.90;;;4.90;;
10659;SDS011;5378;53.206;13.316;2024-03-23T01:41:15;14.17;;;4.27;;
10659;SDS011;5378;53.206;13.316;2024-03-23T01:43:59;14.87;;;4.40;;
10659;SDS011;5378;53.206;13.316;2024-03-23T01:46:50;16.20;;;4.10;;
10659;SDS011;5378;53.206;13.316;2024-03-23T01:49:35;14.23;;;3.80;;
10659;SDS011;5378;53.206;13.316;2024-03-23T01:52:20;14.60;;;5.00;;
10659;SDS011;5378;53.206;13.316;2024-03-23T01:55:04;21.10;;;3.93;;
10659;SDS011;5378;53.206;13.316;2024-03-23T01:57:49;12.83;;;4.20;;
10659;SDS011;5378;53.206;13.316;2024-03-23T02:00:34;18.93;;;4.67;;
10659;SDS011;5378;53.206;13.316;2024-03-23T02:03:25;11.70;;;3.30;;
10659;SDS011;5378;53.206;13.316;2024-03-23T02:06:11;10.97;;;3.90;;
10659;SDS011;5378;53.206;13.316;2024-03-23T02:08:56;19.47;;;4.40;;
10659;SDS011;5378;53.206;13.316;2024-03-23T02:11:40;15.90;;;4.30;;
10659;SDS011;5378;53.206;13.316;2024-03-23T02:14:25;15.90;;;4.10;;
10659;SDS011;5378;53.206;13.316;2024-03-23T02:17:09;19.23;;;4.60;;
10659;SDS011;5378;53.206;13.316;2024-03-23T02:19:54;14.83;;;3.60;;
10659;SDS011;5378;53.206;13.316;2024-03-23T02:22:38;15.00;;;3.80;;
10659;SDS011;5378;53.206;13.316;2024-03-23T02:25:23;10.30;;;4.50;;
10659;SDS011;5378;53.206;13.316;2024-03-23T02:28:08;15.80;;;3.30;;
10659;SDS011;5378;53.206;13.316;2024-03-23T02:30:52;15.47;;;3.03;;
10659;SDS011;5378;53.206;13.316;2024-03-23T02:33:37;15.70;;;4.07;;
10659;SDS011;5378;53.206;13.316;2024-03-23T02:36:22;17.03;;;3.13;;
10659;SDS011;5378;53.206;13.316;2024-03-23T02:39:07;12.43;;;2.83;;
10659;SDS011;5378;53.206;13.316;2024-03-23T02:41:52;8.40;;;2.90;;
10659;SDS011;5378;53.206;13.316;2024-03-23T02:44:36;14.70;;;3.50;;
10659;SDS011;5378;53.206;13.316;2024-03-23T02:47:21;6.63;;;3.90;;
10659;SDS011;5378;53.206;13.316;2024-03-23T02:50:05;24.53;;;3.80;;
10659;SDS011;5378;53.206;13.316;2024-03-23T02:52:50;11.83;;;3.10;;
10659;SDS011;5378;53.206;13.316;2024-03-23T02:55:35;14.40;;;3.50;;
10659;SDS011;5378;53.206;13.316;2024-03-23T02:58:20;20.13;;;3.10;;
10659;SDS011;5378;53.206;13.316;2024-03-23T03:01:04;11.40;;;2.97;;
10659;SDS011;5378;53.206;13.316;2024-03-23T03:03:48;15.40;;;3.43;;
10659;SDS011;5378;53.206;13.316;2024-03-23T03:06:33;11.30;;;3.07;;
10659;SDS011;5378;53.206;13.316;2024-03-23T03:09:17;13.97;;;2.60;;
10659;SDS011;5378;53.206;13.316;2024-03-23T03:12:02;7.37;;;2.97;;
10659;SDS011;5378;53.206;13.316;2024-03-23T03:14:47;12.17;;;3.00;;
10659;SDS011;5378;53.206;13.316;2024-03-23T03:17:31;10.03;;;3.40;;
10659;SDS011;5378;53.206;13.316;2024-03-23T03:20:16;28.57;;;3.13;;
10659;SDS011;5378;53.206;13.316;2024-03-23T03:23:02;11.40;;;3.50;;
10659;SDS011;5378;53.206;13.316;2024-03-23T03:25:46;12.23;;;2.93;;
10659;SDS011;5378;53.206;13.316;2024-03-23T03:28:31;5.90;;;2.87;;
10659;SDS011;5378;53.206;13.316;2024-03-23T03:31:20;23.70;;;3.33;;
10659;SDS011;5378;53.206;13.316;2024-03-23T03:34:04;12.37;;;2.97;;
10659;SDS011;5378;53.206;13.316;2024-03-23T03:36:49;13.43;;;3.47;;
10659;SDS011;5378;53.206;13.316;2024-03-23T03:39:33;20.97;;;4.27;;
10659;SDS011;5378;53.206;13.316;2024-03-23T03:42:18;10.17;;;3.13;;
10659;SDS011;5378;53.206;13.316;2024-03-23T03:45:03;10.50;;;3.20;;
10659;SDS011;5378;53.206;13.316;2024-03-23T03:47:48;17.87;;;4.20;;
10659;SDS011;5378;53.206;13.316;2024-03-23T03:50:33;7.13;;;2.47;;
10659;SDS011;5378;53.206;13.316;2024-03-23T03:53:18;14.97;;;3.30;;
10659;SDS011;5378;53.206;13.316;2024-03-23T03:56:03;10.50;;;3.17;;
10659;SDS011;5378;53.206;13.316;2024-03-23T03:58:48;17.20;;;3.43;;
10659;SDS011;5378;53.206;13.316;2024-03-23T04:01:32;6.33;;;2.73;;
10659;SDS011;5378;53.206;13.316;2024-03-23T04:04:17;13.90;;;3.10;;
10659;SDS011;5378;53.206;13.316;2024-03-23T04:07:02;11.20;;;3.70;;
10659;SDS011;5378;53.206;13.316;2024-03-23T04:09:47;7.27;;;3.03;;
10659;SDS011;5378;53.206;13.316;2024-03-23T04:12:31;19.43;;;3.80;;
10659;SDS011;5378;53.206;13.316;2024-03-23T04:15:16;16.10;;;3.80;;
10659;SDS011;5378;53.206;13.316;2024-03-23T04:18:00;7.97;;;3.90;;
10659;SDS011;5378;53.206;13.316;2024-03-23T04:20:45;11.13;;;3.60;;
10659;SDS011;5378;53.206;13.316;2024-03-23T04:23:29;11.30;;;3.70;;
10659;SDS011;5378;53.206;13.316;2024-03-23T04:26:14;14.30;;;3.97;;
10659;SDS011;5378;53.206;13.316;2024-03-23T04:28:59;31.13;;;3.93;;
10659;SDS011;5378;53.206;13.316;2024-03-23T04:31:45;11.07;;;4.10;;
10659;SDS011;5378;53.206;13.316;2024-03-23T04:34:29;18.70;;;3.30;;
10659;SDS011;5378;53.206;13.316;2024-03-23T04:37:14;16.83;;;3.90;;
10659;SDS011;5378;53.206;13.316;2024-03-23T04:40:01;7.23;;;2.97;;
10659;SDS011;5378;53.206;13.316;2024-03-23T04:42:46;11.20;;;3.33;;
10659;SDS011;5378;53.206;13.316;2024-03-23T04:45:31;15.30;;;5.47;;
10659;SDS011;5378;53.206;13.316;2024-03-23T04:48:15;14.37;;;4.13;;
10659;SDS011;5378;53.206;13.316;2024-03-23T04:50:59;13.33;;;2.83;;
10659;SDS011;5378;53.206;13.316;2024-03-23T04:53:44;17.77;;;4.73;;
10659;SDS011;5378;53.206;13.316;2024-03-23T04:56:29;17.90;;;4.50;;
10659;SDS011;5378;53.206;13.316;2024-03-23T04:59:15;10.57;;;3.80;;
10659;SDS011;5378;53.206;13.316;2024-03-23T05:01:59;9.10;;;3.57;;
10659;SDS011;5378;53.206;13.316;2024-03-23T05:04:44;13.90;;;3.47;;
10659;SDS011;5378;53.206;13.316;2024-03-23T05:07:28;12.00;;;3.93;;
10659;SDS011;5378;53.206;13.316;2024-03-23T05:10:13;10.20;;;3.90;;
10659;SDS011;5378;53.206;13.316;2024-03-23T05:12:57;12.17;;;4.63;;
10659;SDS011;5378;53.206;13.316;2024-03-23T05:15:42;8.90;;;3.50;;
10659;SDS011;5378;53.206;13.316;2024-03-23T05:18:27;19.43;;;8.70;;
10659;SDS011;5378;53.206;13.316;2024-03-23T05:21:12;12.23;;;4.40;;
10659;SDS011;5378;53.206;13.316;2024-03-23T05:23:56;13.97;;;4.90;;
10659;SDS011;5378;53.206;13.316;2024-03-23T05:26:41;18.23;;;4.67;;
10659;SDS011;5378;53.206;13.316;2024-03-23T05:29:25;10.57;;;4.50;;
10659;SDS011;5378;53.206;13.316;2024-03-23T05:32:09;14.00;;;3.70;;
10659;SDS011;5378;53.206;13.316;2024-03-23T05:34:54;20.57;;;4.00;;
10659;SDS011;5378;53.206;13.316;2024-03-23T05:37:42;23.57;;;4.23;;
10659;SDS011;5378;53.206;13.316;2024-03-23T05:40:26;17.07;;;4.47;;
10659;SDS011;5378;53.206;13.316;2024-03-23T05:43:11;14.03;;;4.27;;
10659;SDS011;5378;53.206;13.316;2024-03-23T05:45:59;6.20;;;3.37;;
10659;SDS011;5378;53.206;13.316;2024-03-23T05:48:45;31.50;;;5.97;;
10659;SDS011;5378;53.206;13.316;2024-03-23T05:51:30;6.87;;;3.80;;
10659;SDS011;5378;53.206;13.316;2024-03-23T05:54:14;26.50;;;4.17;;
10659;SDS011;5378;53.206;13.316;2024-03-23T05:56:59;11.33;;;3.60;;
10659;SDS011;5378;53.206;13.316;2024-03-23T05:59:44;12.77;;;3.27;;
10659;SDS011;5378;53.206;13.316;2024-03-23T06:02:29;9.10;;;3.17;;
10659;SDS011;5378;53.206;13.316;2024-03-23T06:05:13;10.10;;;2.33;;
10659;SDS011;5378;53.206;13.316;2024-03-23T06:07:57;11.43;;;2.47;;
10659;SDS011;5378;53.206;13.316;2024-03-23T06:10:42;30.87;;;2.70;;
10659;SDS011;5378;53.206;13.316;2024-03-23T06:13:27;6.53;;;2.07;;
10659;SDS011;5378;53.206;13.316;2024-03-23T06:16:14;6.50;;;2.83;;
10659;SDS011;5378;53.206;13.316;2024-03-23T06:18:58;17.27;;;3.20;;
10659;SDS011;5378;53.206;13.316;2024-03-23T06:21:44;13.67;;;2.20;;
10659;SDS011;5378;53.206;13.316;2024-03-23T06:24:29;5.90;;;2.47;;
10659;SDS011;5378;53.206;13.316;2024-03-23T06:27:13;9.80;;;2.27;;
10659;SDS011;5378;53.206;13.316;2024-03-23T06:29:58;11.53;;;1.93;;
10659;SDS011;5378;53.206;13.316;2024-03-23T06:32:43;24.27;;;3.27;;
10659;SDS011;5378;53.206;13.316;2024-03-23T06:35:27;18.20;;;3.50;;
10659;SDS011;5378;53.206;13.316;2024-03-23T06:38:12;10.87;;;2.90;;
10659;SDS011;5378;53.206;13.316;2024-03-23T06:40:56;10.50;;;1.83;;
10659;SDS011;5378;53.206;13.316;2024-03-23T06:43:41;15.60;;;2.10;;
10659;SDS011;5378;53.206;13.316;2024-03-23T06:46:27;15.30;;;2.30;;
10659;SDS011;5378;53.206;13.316;2024-03-23T06:49:12;37.77;;;2.33;;
10659;SDS011;5378;53.206;13.316;2024-03-23T06:51:57;27.77;;;3.73;;
10659;SDS011;5378;53.206;13.316;2024-03-23T06:54:41;13.80;;;2.80;;
10659;SDS011;5378;53.206;13.316;2024-03-23T06:57:26;7.57;;;2.73;;
10659;SDS011;5378;53.206;13.316;2024-03-23T07:00:11;10.37;;;4.07;;
10659;SDS011;5378;53.206;13.316;2024-03-23T07:02:57;22.20;;;2.00;;
10659;SDS011;5378;53.206;13.316;2024-03-23T07:05:42;20.50;;;2.77;;
10659;SDS011;5378;53.206;13.316;2024-03-23T07:08:27;11.97;;;2.20;;
10659;SDS011;5378;53.206;13.316;2024-03-23T07:11:11;12.63;;;2.63;;
10659;SDS011;5378;53.206;13.316;2024-03-23T07:13:55;8.23;;;1.70;;
10659;SDS011;5378;53.206;13.316;2024-03-23T07:16:40;11.27;;;2.10;;
10659;SDS011;5378;53.206;13.316;2024-03-23T07:19:25;10.63;;;2.33;;
10659;SDS011;5378;53.206;13.316;2024-03-23T07:22:10;18.47;;;3.03;;
10659;SDS011;5378;53.206;13.316;2024-03-23T07:24:54;15.90;;;3.00;;
10659;SDS011;5378;53.206;13.316;2024-03-23T07:27:39;8.83;;;2.27;;
10659;SDS011;5378;53.206;13.316;2024-03-23T07:30:24;19.03;;;2.07;;
10659;SDS011;5378;53.206;13.316;2024-03-23T07:33:09;10.67;;;2.07;;
10659;SDS011;5378;53.206;13.316;2024-03-23T07:35:53;4.83;;;2.60;;
10659;SDS011;5378;53.206;13.316;2024-03-23T07:38:41;9.97;;;2.47;;
10659;SDS011;5378;53.206;13.316;2024-03-23T07:41:26;19.83;;;2.33;;
10659;SDS011;5378;53.206;13.316;2024-03-23T07:44:11;21.70;;;3.23;;
10659;SDS011;5378;53.206;13.316;2024-03-23T07:46:56;7.70;;;2.97;;
10659;SDS011;5378;53.206;13.316;2024-03-23T07:49:41;9.80;;;2.47;;
10659;SDS011;5378;53.206;13.316;2024-03-23T07:52:28;4.10;;;2.00;;
10659;SDS011;5378;53.206;13.316;2024-03-23T07:55:13;13.73;;;2.60;;
10659;SDS011;5378;53.206;13.316;2024-03-23T07:57:58;13.17;;;2.93;;
10659;SDS011;5378;53.206;13.316;2024-03-23T08:00:42;5.90;;;2.33;;
10659;SDS011;5378;53.206;13.316;2024-03-23T08:03:27;7.30;;;2.37;;
10659;SDS011;5378;53.206;13.316;2024-03-23T08:06:18;16.30;;;3.07;;
10659;SDS011;5378;53.206;13.316;2024-03-23T08:09:04;22.00;;;3.80;;
10659;SDS011;5378;53.206;13.316;2024-03-23T08:11:49;19.27;;;3.00;;
10659;SDS011;5378;53.206;13.316;2024-03-23T08:14:33;15.83;;;3.10;;
10659;SDS011;5378;53.206;13.316;2024-03-23T08:17:18;22.87;;;2.70;;
10659;SDS011;5378;53.206;13.316;2024-03-23T08:20:02;13.90;;;2.70;;
10659;SDS011;5378;53.206;13.316;2024-03-23T08:22:47;25.03;;;2.53;;
10659;SDS011;5378;53.206;13.316;2024-03-23T08:25:32;13.27;;;2.77;;
10659;SDS011;5378;53.206;13.316;2024-03-23T08:28:16;14.33;;;3.00;;
10659;SDS011;5378;53.206;13.316;2024-03-23T08:31:05;6.37;;;2.47;;
10659;SDS011;5378;53.206;13.316;2024-03-23T08:33:51;11.53;;;3.17;;
10659;SDS011;5378;53.206;13.316;2024-03-23T08:36:36;17.70;;;2.57;;
10659;SDS011;5378;53.206;13.316;2024-03-23T08:39:21;14.93;;;3.00;;
10659;SDS011;5378;53.206;13.316;2024-03-23T08:42:06;10.60;;;3.30;;
10659;SDS011;5378;53.206;13.316;2024-03-23T08:44:51;12.67;;;2.23;;
10659;SDS011;5378;53.206;13.316;2024-03-23T08:47:35;18.87;;;2.27;;
10659;SDS011;5378;53.206;13.316;2024-03-23T08:50:20;11.50;;;2.13;;
10659;SDS011;5378;53.206;13.316;2024-03-23T08:53:06;17.37;;;3.13;;
10659;SDS011;5378;53.206;13.316;2024-03-23T08:55:53;25.17;;;2.40;;
10659;SDS011;5378;53.206;13.316;2024-03-23T08:58:38;15.60;;;3.23;;
10659;SDS011;5378;53.206;13.316;2024-03-23T09:01:23;19.53;;;3.27;;
10659;SDS011;5378;53.206;13.316;2024-03-23T09:04:08;15.00;;;2.50;;
10659;SDS011;5378;53.206;13.316;2024-03-23T09:06:52;21.43;;;3.80;;
10659;SDS011;5378;53.206;13.316;2024-03-23T09:09:40;14.30;;;3.50;;
10659;SDS011;5378;53.206;13.316;2024-03-23T09:12:25;12.07;;;3.23;;
10659;SDS011;5378;53.206;13.316;2024-03-23T09:15:10;12.80;;;3.13;;
10659;SDS011;5378;53.206;13.316;2024-03-23T09:17:54;20.07;;;2.77;;
10659;SDS011;5378;53.206;13.316;2024-03-23T09:20:38;16.00;;;2.87;;
10659;SDS011;5378;53.206;13.316;2024-03-23T09:23:23;31.00;;;3.43;;
10659;SDS011;5378;53.206;13.316;2024-03-23T09:26:08;12.73;;;2.70;;
10659;SDS011;5378;53.206;13.316;2024-03-23T09:28:53;16.50;;;3.40;;
10659;SDS011;5378;53.206;13.316;2024-03-23T09:31:39;12.60;;;2.33;;
10659;SDS011;5378;53.206;13.316;2024-03-23T09:34:25;14.23;;;3.30;;
10659;SDS011;5378;53.206;13.316;2024-03-23T09:37:10;23.43;;;4.30;;
10659;SDS011;5378;53.206;13.316;2024-03-23T09:39:54;24.03;;;4.07;;
10659;SDS011;5378;53.206;13.316;2024-03-23T09:42:39;11.07;;;3.30;;
10659;SDS011;5378;53.206;13.316;2024-03-23T09:45:28;16.30;;;2.30;;
10659;SDS011;5378;53.206;13.316;2024-03-23T09:48:13;9.33;;;2.90;;
10659;SDS011;5378;53.206;13.316;2024-03-23T09:50:58;15.93;;;2.50;;
10659;SDS011;5378;53.206;13.316;2024-03-23T09:53:43;10.10;;;2.80;;
10659;SDS011;5378;53.206;13.316;2024-03-23T09:56:27;8.20;;;2.47;;
10659;SDS011;5378;53.206;13.316;2024-03-23T09:59:12;8.77;;;3.03;;
10659;SDS011;5378;53.206;13.316;2024-03-23T10:01:56;18.10;;;4.60;;
10659;SDS011;5378;53.206;13.316;2024-03-23T10:04:41;15.87;;;2.80;;
10659;SDS011;5378;53.206;13.316;2024-03-23T10:07:26;8.93;;;2.40;;
10659;SDS011;5378;53.206;13.316;2024-03-23T10:10:15;13.63;;;3.37;;
10659;SDS011;5378;53.206;13.316;2024-03-23T10:13:00;11.60;;;3.57;;
10659;SDS011;5378;53.206;13.316;2024-03-23T10:15:45;9.13;;;2.60;;
10659;SDS011;5378;53.206;13.316;2024-03-23T10:18:30;16.43;;;2.73;;
10659;SDS011;5378;53.206;13.316;2024-03-23T10:21:16;12.33;;;2.30;;
10659;SDS011;5378;53.206;13.316;2024-03-23T10:24:07;19.93;;;3.70;;
10659;SDS011;5378;53.206;13.316;2024-03-23T10:26:56;9.80;;;2.00;;
10659;SDS011;5378;53.206;13.316;2024-03-23T10:29:41;18.83;;;4.00;;
10659;SDS011;5378;53.206;13.316;2024-03-23T10:32:25;10.23;;;2.70;;
10659;SDS011;5378;53.206;13.316;2024-03-23T10:35:17;21.33;;;4.27;;
10659;SDS011;5378;53.206;13.316;2024-03-23T10:38:06;7.40;;;2.47;;
10659;SDS011;5378;53.206;13.316;2024-03-23T10:40:52;19.70;;;2.03;;
10659;SDS011;5378;53.206;13.316;2024-03-23T10:43:38;13.40;;;2.87;;
10659;SDS011;5378;53.206;13.316;2024-03-23T10:46:24;10.53;;;2.10;;
10659;SDS011;5378;53.206;13.316;2024-03-23T10:49:08;15.73;;;2.70;;
10659;SDS011;5378;53.206;13.316;2024-03-23T10:51:53;17.27;;;3.07;;
10659;SDS011;5378;53.206;13.316;2024-03-23T10:54:38;23.07;;;3.47;;
10659;SDS011;5378;53.206;13.316;2024-03-23T10:57:34;8.47;;;2.20;;
10659;SDS011;5378;53.206;13.316;2024-03-23T11:00:20;14.90;;;2.90;;
10659;SDS011;5378;53.206;13.316;2024-03-23T11:06:34;6.20;;;2.40;;
10659;SDS011;5378;53.206;13.316;2024-03-23T11:09:53;13.33;;;2.40;;
10659;SDS011;5378;53.206;13.316;2024-03-23T11:12:30;11.27;;;2.23;;
10659;SDS011;5378;53.206;13.316;2024-03-23T11:15:19;17.70;;;2.80;;
10659;SDS011;5378;53.206;13.316;2024-03-23T11:18:04;9.87;;;2.83;;
10659;SDS011;5378;53.206;13.316;2024-03-23T11:20:52;8.30;;;2.07;;
10659;SDS011;5378;53.206;13.316;2024-03-23T11:23:36;7.67;;;2.40;;
10659;SDS011;5378;53.206;13.316;2024-03-23T11:26:21;27.00;;;2.50;;
10659;SDS011;5378;53.206;13.316;2024-03-23T11:29:09;6.83;;;1.90;;
10659;SDS011;5378;53.206;13.316;2024-03-23T11:31:54;9.53;;;2.47;;
10659;SDS011;5378;53.206;13.316;2024-03-23T11:34:39;16.60;;;2.90;;
10659;SDS011;5378;53.206;13.316;2024-03-23T11:37:23;15.87;;;2.80;;
10659;SDS011;5378;53.206;13.316;2024-03-23T11:40:18;13.90;;;3.20;;
10659;SDS011;5378;53.206;13.316;2024-03-23T11:43:04;19.20;;;3.87;;
10659;SDS011;5378;53.206;13.316;2024-03-23T11:45:50;23.20;;;2.97;;
10659;SDS011;5378;53.206;13.316;2024-03-23T11:48:36;9.70;;;2.93;;
10659;SDS011;5378;53.206;13.316;2024-03-23T11:51:21;14.83;;;2.83;;
10659;SDS011;5378;53.206;13.316;2024-03-23T11:54:08;5.47;;;2.13;;
10659;SDS011;5378;53.206;13.316;2024-03-23T11:56:56;12.57;;;2.73;;
10659;SDS011;5378;53.206;13.316;2024-03-23T11:59:42;5.10;;;1.83;;
10659;SDS011;5378;53.206;13.316;2024-03-23T12:02:27;15.57;;;3.57;;
10659;SDS011;5378;53.206;13.316;2024-03-23T12:05:15;8.43;;;2.07;;
10659;SDS011;5378;53.206;13.316;2024-03-23T12:11:15;5.47;;;1.63;;
10659;SDS011;5378;53.206;13.316;2024-03-23T12:14:00;11.10;;;2.40;;
10659;SDS011;5378;53.206;13.316;2024-03-23T12:16:46;8.87;;;1.80;;
10659;SDS011;5378;53.206;13.316;2024-03-23T12:19:30;10.13;;;3.40;;
10659;SDS011;5378;53.206;13.316;2024-03-23T12:22:15;7.70;;;1.93;;
10659;SDS011;5378;53.206;13.316;2024-03-23T12:25:04;15.07;;;2.77;;
10659;SDS011;5378;53.206;13.316;2024-03-23T12:27:51;10.83;;;1.90;;
10659;SDS011;5378;53.206;13.316;2024-03-23T12:30:36;10.40;;;2.40;;
10659;SDS011;5378;53.206;13.316;2024-03-23T12:33:23;16.63;;;3.37;;
10659;SDS011;5378;53.206;13.316;2024-03-23T12:36:08;5.70;;;1.90;;
10659;SDS011;5378;53.206;13.316;2024-03-23T12:38:53;6.57;;;1.50;;
10659;SDS011;5378;53.206;13.316;2024-03-23T12:41:37;10.80;;;2.53;;
10659;SDS011;5378;53.206;13.316;2024-03-23T12:44:22;10.87;;;2.53;;
10659;SDS011;5378;53.206;13.316;2024-03-23T12:47:06;11.47;;;2.53;;
10659;SDS011;5378;53.206;13.316;2024-03-23T12:49:51;16.67;;;1.90;;
10659;SDS011;5378;53.206;13.316;2024-03-23T12:52:36;7.23;;;1.60;;
10659;SDS011;5378;53.206;13.316;2024-03-23T12:55:21;5.17;;;1.43;;
10659;SDS011;5378;53.206;13.316;2024-03-23T12:58:06;17.77;;;3.03;;
10659;SDS011;5378;53.206;13.316;2024-03-23T13:00:51;10.20;;;2.50;;
10659;SDS011;5378;53.206;13.316;2024-03-23T13:03:35;8.30;;;2.10;;
10659;SDS011;5378;53.206;13.316;2024-03-23T13:06:20;10.07;;;2.07;;
10659;SDS011;5378;53.206;13.316;2024-03-23T13:09:05;5.27;;;1.37;;
10659;SDS011;5378;53.206;13.316;2024-03-23T13:11:50;17.63;;;1.83;;
10659;SDS011;5378;53.206;13.316;2024-03-23T13:14:34;4.30;;;1.53;;
10659;SDS011;5378;53.206;13.316;2024-03-23T13:17:19;7.23;;;1.50;;
10659;SDS011;5378;53.206;13.316;2024-03-23T13:20:04;5.57;;;1.73;;
10659;SDS011;5378;53.206;13.316;2024-03-23T13:22:50;5.50;;;1.90;;
10659;SDS011;5378;53.206;13.316;2024-03-23T13:25:36;5.03;;;1.13;;
10659;SDS011;5378;53.206;13.316;2024-03-23T13:28:21;8.53;;;2.07;;
10659;SDS011;5378;53.206;13.316;2024-03-23T13:31:06;10.00;;;2.07;;
10659;SDS011;5378;53.206;13.316;2024-03-23T13:33:52;3.07;;;1.33;;
10659;SDS011;5378;53.206;13.316;2024-03-23T13:36:36;7.00;;;1.00;;
10659;SDS011;5378;53.206;13.316;2024-03-23T13:39:21;5.10;;;1.40;;
10659;SDS011;5378;53.206;13.316;2024-03-23T13:42:05;3.43;;;1.10;;
10659;SDS011;5378;53.206;13.316;2024-03-23T13:44:50;5.50;;;1.53;;
10659;SDS011;5378;53.206;13.316;2024-03-23T13:47:35;4.47;;;1.43;;
10659;SDS011;5378;53.206;13.316;2024-03-23T13:50:19;3.67;;;1.60;;
10659;SDS011;5378;53.206;13.316;2024-03-23T13:53:04;7.17;;;1.53;;
10659;SDS011;5378;53.206;13.316;2024-03-23T13:55:48;6.63;;;1.60;;
10659;SDS011;5378;53.206;13.316;2024-03-23T13:58:33;7.17;;;1.97;;
10659;SDS011;5378;53.206;13.316;2024-03-23T14:01:17;9.83;;;2.23;;
10659;SDS011;5378;53.206;13.316;2024-03-23T14:04:02;6.27;;;2.60;;
10659;SDS011;5378;53.206;13.316;2024-03-23T14:06:47;17.70;;;4.27;;
10659;SDS011;5378;53.206;13.316;2024-03-23T14:09:32;6.40;;;1.80;;
10659;SDS011;5378;53.206;13.316;2024-03-23T14:12:17;7.90;;;1.60;;
10659;SDS011;5378;53.206;13.316;2024-03-23T14:15:03;3.80;;;1.30;;
10659;SDS011;5378;53.206;13.316;2024-03-23T14:17:49;3.47;;;1.40;;
10659;SDS011;5378;53.206;13.316;2024-03-23T14:20:35;3.73;;;1.37;;
10659;SDS011;5378;53.206;13.316;2024-03-23T14:23:20;5.13;;;1.43;;
10659;SDS011;5378;53.206;13.316;2024-03-23T14:26:04;3.73;;;0.73;;
10659;SDS011;5378;53.206;13.316;2024-03-23T14:28:49;3.33;;;1.10;;
10659;SDS011;5378;53.206;13.316;2024-03-23T14:31:34;5.03;;;1.00;;
10659;SDS011;5378;53.206;13.316;2024-03-23T14:34:19;4.67;;;0.87;;
10659;SDS011;5378;53.206;13.316;2024-03-23T14:37:04;6.10;;;1.10;;
10659;SDS011;5378;53.206;13.316;2024-03-23T14:39:49;2.30;;;0.70;;
10659;SDS011;5378;53.206;13.316;2024-03-23T14:42:34;0.80;;;0.50;;
10659;SDS011;5378;53.206;13.316;2024-03-23T14:45:19;4.80;;;1.13;;
10659;SDS011;5378;53.206;13.316;2024-03-23T14:48:04;2.80;;;1.03;;
10659;SDS011;5378;53.206;13.316;2024-03-23T14:50:56;2.50;;;1.70;;
10659;SDS011;5378;53.206;13.316;2024-03-23T14:53:41;5.27;;;0.87;;
10659;SDS011;5378;53.206;13.316;2024-03-23T14:56:29;4.03;;;0.97;;
10659;SDS011;5378;53.206;13.316;2024-03-23T14:59:13;2.70;;;0.93;;
10659;SDS011;5378;53.206;13.316;2024-03-23T15:01:58;1.30;;;0.70;;
10659;SDS011;5378;53.206;13.316;2024-03-23T15:04:42;7.73;;;1.30;;
10659;SDS011;5378;53.206;13.316;2024-03-23T15:07:27;3.60;;;1.10;;
10659;SDS011;5378;53.206;13.316;2024-03-23T15:10:12;1.00;;;0.90;;
10659;SDS011;5378;53.206;13.316;2024-03-23T15:12:57;5.13;;;1.93;;
10659;SDS011;5378;53.206;13.316;2024-03-23T15:15:42;5.30;;;1.60;;
10659;SDS011;5378;53.206;13.316;2024-03-23T15:18:29;1.70;;;0.87;;
10659;SDS011;5378;53.206;13.316;2024-03-23T15:21:14;3.47;;;0.90;;
10659;SDS011;5378;53.206;13.316;2024-03-23T15:24:04;7.53;;;1.20;;
10659;SDS011;5378;53.206;13.316;2024-03-23T15:26:49;13.93;;;1.90;;
10659;SDS011;5378;53.206;13.316;2024-03-23T15:29:36;9.93;;;1.70;;
10659;SDS011;5378;53.206;13.316;2024-03-23T15:32:20;14.00;;;2.07;;
10659;SDS011;5378;53.206;13.316;2024-03-23T15:35:05;11.50;;;2.20;;
10659;SDS011;5378;53.206;13.316;2024-03-23T15:37:51;3.03;;;1.60;;
10659;SDS011;5378;53.206;13.316;2024-03-23T15:40:36;10.53;;;2.50;;
10659;SDS011;5378;53.206;13.316;2024-03-23T15:43:20;5.00;;;1.73;;
10659;SDS011;5378;53.206;13.316;2024-03-23T15:46:05;6.67;;;1.63;;
10659;SDS011;5378;53.206;13.316;2024-03-23T15:48:55;13.67;;;1.87;;
10659;SDS011;5378;53.206;13.316;2024-03-23T15:51:39;7.30;;;1.80;;
10659;SDS011;5378;53.206;13.316;2024-03-23T15:54:26;5.60;;;1.30;;
10659;SDS011;5378;53.206;13.316;2024-03-23T15:57:10;7.03;;;1.60;;
10659;SDS011;5378;53.206;13.316;2024-03-23T15:59:55;5.03;;;1.80;;
10659;SDS011;5378;53.206;13.316;2024-03-23T16:02:40;10.90;;;1.80;;
10659;SDS011;5378;53.206;13.316;2024-03-23T16:05:25;3.87;;;1.40;;
10659;SDS011;5378;53.206;13.316;2024-03-23T16:08:12;9.40;;;2.10;;
10659;SDS011;5378;53.206;13.316;2024-03-23T16:11:01;6.77;;;1.80;;
10659;SDS011;5378;53.206;13.316;2024-03-23T16:13:47;6.47;;;2.00;;
10659;SDS011;5378;53.206;13.316;2024-03-23T16:16:32;7.57;;;1.70;;
10659;SDS011;5378;53.206;13.316;2024-03-23T16:19:16;3.67;;;1.40;;
10659;SDS011;5378;53.206;13.316;2024-03-23T16:22:01;1.00;;;0.90;;
10659;SDS011;5378;53.206;13.316;2024-03-23T16:24:46;4.40;;;2.13;;
10659;SDS011;5378;53.206;13.316;2024-03-23T16:27:30;4.50;;;1.73;;
10659;SDS011;5378;53.206;13.316;2024-03-23T16:30:15;7.40;;;1.10;;
10659;SDS011;5378;53.206;13.316;2024-03-23T16:33:00;2.23;;;1.10;;
10659;SDS011;5378;53.206;13.316;2024-03-23T16:35:45;2.10;;;1.07;;
10659;SDS011;5378;53.206;13.316;2024-03-23T16:38:40;3.53;;;1.70;;
10659;SDS011;5378;53.206;13.316;2024-03-23T16:41:25;8.57;;;2.10;;
10659;SDS011;5378;53.206;13.316;2024-03-23T16:44:11;7.33;;;1.50;;
10659;SDS011;5378;53.206;13.316;2024-03-23T16:46:56;7.60;;;1.27;;
10659;SDS011;5378;53.206;13.316;2024-03-23T16:49:41;4.80;;;1.47;;
10659;SDS011;5378;53.206;13.316;2024-03-23T16:52:25;3.73;;;1.70;;
10659;SDS011;5378;53.206;13.316;2024-03-23T16:55:10;8.07;;;3.10;;
10659;SDS011;5378;53.206;13.316;2024-03-23T16:57:54;4.17;;;2.43;;
10659;SDS011;5378;53.206;13.316;2024-03-23T17:00:39;11.23;;;2.93;;
10659;SDS011;5378;53.206;13.316;2024-03-23T17:03:24;9.23;;;2.30;;
10659;SDS011;5378;53.206;13.316;2024-03-23T17:06:09;3.40;;;2.30;;
10659;SDS011;5378;53.206;13.316;2024-03-23T17:08:55;3.73;;;0.77;;
10659;SDS011;5378;53.206;13.316;2024-03-23T17:11:40;1.73;;;0.63;;
10659;SDS011;5378;53.206;13.316;2024-03-23T17:14:26;6.33;;;1.37;;
10659;SDS011;5378;53.206;13.316;2024-03-23T17:17:11;2.97;;;1.23;;
10659;SDS011;5378;53.206;13.316;2024-03-23T17:19:59;3.60;;;1.27;;
10659;SDS011;5378;53.206;13.316;2024-03-23T17:22:44;1.53;;;1.30;;
10659;SDS011;5378;53.206;13.316;2024-03-23T17:25:29;2.00;;;1.10;;
10659;SDS011;5378;53.206;13.316;2024-03-23T17:28:14;1.90;;;1.20;;